Startpagina
METAR-TAF:

METAR-TAF

Vliegvelden :

Shimla, India

breedte: 31-04-54N, lengte: 77-04-05E, hoogte: 1546 m

Actueel weer

Dit bericht is 11 uur en het 44 minuten geleden gemaakt, om 06:00 UTC
Wind 3 kt uit het westen
Temperatuur 16°C
Vochtigheid 42%
Druk 1020 hPa
Zicht: 6000 m
Weinig wolken op 10000 ft

METAR: VISM 160600Z 27003KT 6000 FEW100 16/03 Q1020

Tijdstip: 23:14 (17:44 UTC)


TAF: ontbreekt

Waarnemingen en weersverwachtingen van meer dan 4000 vliegvelden (METAR en TAF).

De beschikbare stations zijn de gele en rode punten op de kaart.

Ga met uw muis naar het station om de naam te zien.

Klik dan om waarnemingen en weersverwachtingen te zien.

kaart wijzigen: klik op de groene knoppen met een zwart kruis om in te zoomen, op de groene knop met een streepje om uit te zoomen of op de groene pijlen voor aangrenzende kaarten.


METAR-TAF: